sensor_id;sensor_type;location;lat;lon;timestamp;pressure;altitude;pressure_sealevel;temperature;humidity
19236;BME280;9752;54.270;12.470;2022-12-13T00:03:08;101275.91;;;-2.34;100.00
19236;BME280;9752;54.270;12.470;2022-12-13T00:08:10;101283.94;;;-2.24;100.00
19236;BME280;9752;54.270;12.470;2022-12-13T00:13:11;101281.19;;;-2.40;100.00
19236;BME280;9752;54.270;12.470;2022-12-13T00:18:14;101279.72;;;-2.59;100.00
19236;BME280;9752;54.270;12.470;2022-12-13T00:23:16;101274.59;;;-2.88;100.00
19236;BME280;9752;54.270;12.470;2022-12-13T00:28:18;101283.38;;;-3.13;100.00
19236;BME280;9752;54.270;12.470;2022-12-13T00:33:21;101278.81;;;-3.30;100.00
19236;BME280;9752;54.270;12.470;2022-12-13T00:38:23;101275.13;;;-3.46;100.00
19236;BME280;9752;54.270;12.470;2022-12-13T00:43:25;101275.03;;;-3.68;100.00
19236;BME280;9752;54.270;12.470;2022-12-13T00:48:28;101273.53;;;-3.73;100.00
19236;BME280;9752;54.270;12.470;2022-12-13T00:53:29;101276.50;;;-3.90;100.00
19236;BME280;9752;54.270;12.470;2022-12-13T00:58:31;101278.28;;;-3.96;100.00
19236;BME280;9752;54.270;12.470;2022-12-13T01:03:34;101276.25;;;-3.99;100.00
19236;BME280;9752;54.270;12.470;2022-12-13T01:08:36;101280.69;;;-4.10;100.00
19236;BME280;9752;54.270;12.470;2022-12-13T01:13:38;101275.78;;;-4.16;100.00
19236;BME280;9752;54.270;12.470;2022-12-13T01:18:42;101277.41;;;-3.89;100.00
19236;BME280;9752;54.270;12.470;2022-12-13T01:23:43;101281.56;;;-3.90;100.00
19236;BME280;9752;54.270;12.470;2022-12-13T01:28:46;101280.56;;;-4.05;100.00
19236;BME280;9752;54.270;12.470;2022-12-13T01:33:49;101275.06;;;-4.15;100.00
19236;BME280;9752;54.270;12.470;2022-12-13T01:38:51;101269.00;;;-4.03;100.00
19236;BME280;9752;54.270;12.470;2022-12-13T01:43:55;101267.34;;;-4.09;100.00
19236;BME280;9752;54.270;12.470;2022-12-13T01:49:05;101267.19;;;-4.04;100.00
19236;BME280;9752;54.270;12.470;2022-12-13T01:54:12;101264.19;;;-3.94;100.00
19236;BME280;9752;54.270;12.470;2022-12-13T01:59:17;101261.56;;;-3.74;100.00
19236;BME280;9752;54.270;12.470;2022-12-13T02:04:29;101271.06;;;-3.59;100.00
19236;BME280;9752;54.270;12.470;2022-12-13T02:09:33;101270.09;;;-3.39;100.00
19236;BME280;9752;54.270;12.470;2022-12-13T02:14:36;101261.38;;;-3.41;100.00
19236;BME280;9752;54.270;12.470;2022-12-13T02:20:19;101251.53;;;-3.11;100.00
19236;BME280;9752;54.270;12.470;2022-12-13T02:25:40;101248.78;;;-3.12;100.00
19236;BME280;9752;54.270;12.470;2022-12-13T02:30:50;101239.25;;;-2.86;100.00
19236;BME280;9752;54.270;12.470;2022-12-13T02:36:02;101248.34;;;-2.67;100.00
19236;BME280;9752;54.270;12.470;2022-12-13T02:41:14;101235.22;;;-2.99;100.00
19236;BME280;9752;54.270;12.470;2022-12-13T02:46:21;101224.19;;;-2.99;100.00
19236;BME280;9752;54.270;12.470;2022-12-13T02:51:25;101235.75;;;-2.94;100.00
19236;BME280;9752;54.270;12.470;2022-12-13T02:56:29;101237.94;;;-2.97;100.00
19236;BME280;9752;54.270;12.470;2022-12-13T03:01:46;101235.25;;;-2.91;100.00
19236;BME280;9752;54.270;12.470;2022-12-13T03:06:59;101229.59;;;-2.96;100.00
19236;BME280;9752;54.270;12.470;2022-12-13T03:12:13;101226.53;;;-2.79;100.00
19236;BME280;9752;54.270;12.470;2022-12-13T03:17:39;101234.34;;;-2.92;100.00
19236;BME280;9752;54.270;12.470;2022-12-13T03:22:43;101228.00;;;-2.96;100.00
19236;BME280;9752;54.270;12.470;2022-12-13T03:27:45;101220.22;;;-2.90;100.00
19236;BME280;9752;54.270;12.470;2022-12-13T03:32:48;101224.53;;;-2.96;100.00
19236;BME280;9752;54.270;12.470;2022-12-13T03:37:52;101226.00;;;-2.91;100.00
19236;BME280;9752;54.270;12.470;2022-12-13T03:42:54;101220.16;;;-3.04;100.00
19236;BME280;9752;54.270;12.470;2022-12-13T03:47:57;101225.56;;;-3.23;100.00
19236;BME280;9752;54.270;12.470;2022-12-13T03:53:00;101225.75;;;-3.21;100.00
19236;BME280;9752;54.270;12.470;2022-12-13T03:58:03;101219.28;;;-2.98;100.00
19236;BME280;9752;54.270;12.470;2022-12-13T04:03:06;101214.03;;;-2.85;100.00
19236;BME280;9752;54.270;12.470;2022-12-13T04:08:07;101209.16;;;-2.76;100.00
19236;BME280;9752;54.270;12.470;2022-12-13T04:13:09;101214.06;;;-2.56;100.00
19236;BME280;9752;54.270;12.470;2022-12-13T04:18:30;101200.25;;;-2.58;100.00
19236;BME280;9752;54.270;12.470;2022-12-13T04:23:32;101195.56;;;-2.55;100.00
19236;BME280;9752;54.270;12.470;2022-12-13T04:28:33;101198.66;;;-2.58;100.00
19236;BME280;9752;54.270;12.470;2022-12-13T04:33:36;101200.06;;;-2.45;100.00
19236;BME280;9752;54.270;12.470;2022-12-13T04:38:38;101192.84;;;-2.42;100.00
19236;BME280;9752;54.270;12.470;2022-12-13T04:43:40;101188.97;;;-2.24;100.00
19236;BME280;9752;54.270;12.470;2022-12-13T04:48:43;101196.53;;;-1.96;100.00
19236;BME280;9752;54.270;12.470;2022-12-13T04:53:44;101184.56;;;-1.89;100.00
19236;BME280;9752;54.270;12.470;2022-12-13T04:58:46;101180.00;;;-1.85;100.00
19236;BME280;9752;54.270;12.470;2022-12-13T05:03:49;101184.69;;;-1.81;100.00
19236;BME280;9752;54.270;12.470;2022-12-13T05:08:51;101189.59;;;-1.75;100.00
19236;BME280;9752;54.270;12.470;2022-12-13T05:13:52;101178.34;;;-1.77;100.00
19236;BME280;9752;54.270;12.470;2022-12-13T05:18:55;101181.28;;;-1.88;100.00
19236;BME280;9752;54.270;12.470;2022-12-13T05:23:57;101184.59;;;-2.04;100.00
19236;BME280;9752;54.270;12.470;2022-12-13T05:28:59;101180.06;;;-2.06;100.00
19236;BME280;9752;54.270;12.470;2022-12-13T05:34:02;101176.97;;;-2.11;100.00
19236;BME280;9752;54.270;12.470;2022-12-13T05:39:03;101169.19;;;-2.12;100.00
19236;BME280;9752;54.270;12.470;2022-12-13T05:44:05;101179.19;;;-2.14;100.00
19236;BME280;9752;54.270;12.470;2022-12-13T05:49:10;101173.16;;;-2.07;100.00
19236;BME280;9752;54.270;12.470;2022-12-13T05:54:11;101172.63;;;-2.05;100.00
19236;BME280;9752;54.270;12.470;2022-12-13T05:59:13;101178.78;;;-2.03;100.00
19236;BME280;9752;54.270;12.470;2022-12-13T06:04:16;101178.03;;;-2.02;100.00
19236;BME280;9752;54.270;12.470;2022-12-13T06:09:18;101185.69;;;-2.09;100.00
19236;BME280;9752;54.270;12.470;2022-12-13T06:14:21;101186.81;;;-2.14;100.00
19236;BME280;9752;54.270;12.470;2022-12-13T06:19:24;101189.88;;;-2.09;100.00
19236;BME280;9752;54.270;12.470;2022-12-13T06:24:25;101196.03;;;-2.00;100.00
19236;BME280;9752;54.270;12.470;2022-12-13T06:29:27;101193.28;;;-2.02;100.00
19236;BME280;9752;54.270;12.470;2022-12-13T06:34:32;101193.28;;;-2.02;100.00
19236;BME280;9752;54.270;12.470;2022-12-13T06:39:35;101195.50;;;-2.12;100.00
19236;BME280;9752;54.270;12.470;2022-12-13T06:44:36;101194.63;;;-2.20;100.00
19236;BME280;9752;54.270;12.470;2022-12-13T06:49:40;101197.53;;;-2.31;100.00
19236;BME280;9752;54.270;12.470;2022-12-13T06:54:43;101204.06;;;-2.47;100.00
19236;BME280;9752;54.270;12.470;2022-12-13T06:59:45;101204.44;;;-2.44;100.00
19236;BME280;9752;54.270;12.470;2022-12-13T07:04:48;101213.16;;;-2.35;100.00
19236;BME280;9752;54.270;12.470;2022-12-13T07:09:50;101221.28;;;-2.45;100.00
19236;BME280;9752;54.270;12.470;2022-12-13T07:14:52;101213.34;;;-2.48;100.00
19236;BME280;9752;54.270;12.470;2022-12-13T07:19:56;101219.16;;;-2.63;100.00
19236;BME280;9752;54.270;12.470;2022-12-13T07:24:58;101231.47;;;-2.59;100.00
19236;BME280;9752;54.270;12.470;2022-12-13T07:30:00;101227.47;;;-2.64;100.00
19236;BME280;9752;54.270;12.470;2022-12-13T07:35:03;101230.38;;;-2.61;100.00
19236;BME280;9752;54.270;12.470;2022-12-13T07:40:06;101225.28;;;-2.47;100.00
19236;BME280;9752;54.270;12.470;2022-12-13T07:45:09;101229.28;;;-2.42;100.00
19236;BME280;9752;54.270;12.470;2022-12-13T07:50:12;101228.72;;;-2.39;100.00
19236;BME280;9752;54.270;12.470;2022-12-13T07:55:14;101231.47;;;-2.23;100.00
19236;BME280;9752;54.270;12.470;2022-12-13T08:00:17;101232.75;;;-2.20;100.00
19236;BME280;9752;54.270;12.470;2022-12-13T08:05:20;101241.06;;;-2.06;100.00
19236;BME280;9752;54.270;12.470;2022-12-13T08:10:22;101237.56;;;-1.85;100.00
19236;BME280;9752;54.270;12.470;2022-12-13T08:15:24;101242.66;;;-1.85;100.00
19236;BME280;9752;54.270;12.470;2022-12-13T08:20:27;101247.72;;;-1.78;100.00
19236;BME280;9752;54.270;12.470;2022-12-13T08:25:29;101242.59;;;-1.71;100.00
19236;BME280;9752;54.270;12.470;2022-12-13T08:30:31;101239.72;;;-1.81;100.00
19236;BME280;9752;54.270;12.470;2022-12-13T08:35:34;101246.16;;;-2.06;100.00
19236;BME280;9752;54.270;12.470;2022-12-13T08:40:37;101249.78;;;-2.19;100.00
19236;BME280;9752;54.270;12.470;2022-12-13T08:45:39;101246.72;;;-2.23;100.00
19236;BME280;9752;54.270;12.470;2022-12-13T08:50:42;101240.19;;;-2.21;100.00
19236;BME280;9752;54.270;12.470;2022-12-13T08:55:43;101249.97;;;-2.24;100.00
19236;BME280;9752;54.270;12.470;2022-12-13T09:00:45;101249.25;;;-2.30;100.00
19236;BME280;9752;54.270;12.470;2022-12-13T09:05:49;101263.03;;;-2.28;100.00
19236;BME280;9752;54.270;12.470;2022-12-13T09:10:58;101267.75;;;-2.17;100.00
19236;BME280;9752;54.270;12.470;2022-12-13T09:16:03;101272.66;;;-2.26;100.00
19236;BME280;9752;54.270;12.470;2022-12-13T09:21:07;101272.31;;;-2.22;100.00
19236;BME280;9752;54.270;12.470;2022-12-13T09:26:10;101270.47;;;-2.23;100.00
19236;BME280;9752;54.270;12.470;2022-12-13T09:31:17;101269.22;;;-2.19;100.00
19236;BME280;9752;54.270;12.470;2022-12-13T09:36:20;101272.84;;;-2.17;100.00
19236;BME280;9752;54.270;12.470;2022-12-13T09:41:24;101270.66;;;-2.14;100.00
19236;BME280;9752;54.270;12.470;2022-12-13T09:46:31;101269.94;;;-1.99;100.00
19236;BME280;9752;54.270;12.470;2022-12-13T09:51:35;101269.28;;;-1.60;100.00
19236;BME280;9752;54.270;12.470;2022-12-13T09:56:37;101254.88;;;-1.45;100.00
19236;BME280;9752;54.270;12.470;2022-12-13T10:01:39;101260.84;;;-1.38;100.00
19236;BME280;9752;54.270;12.470;2022-12-13T10:06:42;101257.44;;;-1.45;100.00
19236;BME280;9752;54.270;12.470;2022-12-13T10:11:49;101253.31;;;-1.59;100.00
19236;BME280;9752;54.270;12.470;2022-12-13T10:16:53;101255.38;;;-1.33;100.00
19236;BME280;9752;54.270;12.470;2022-12-13T10:21:59;101256.25;;;-1.26;100.00
19236;BME280;9752;54.270;12.470;2022-12-13T10:27:11;101246.00;;;-1.11;100.00
19236;BME280;9752;54.270;12.470;2022-12-13T10:32:18;101253.41;;;-1.36;100.00
19236;BME280;9752;54.270;12.470;2022-12-13T10:37:27;101252.06;;;-1.25;100.00
19236;BME280;9752;54.270;12.470;2022-12-13T10:42:29;101250.72;;;-1.07;100.00
19236;BME280;9752;54.270;12.470;2022-12-13T10:47:31;101242.44;;;-0.90;100.00
19236;BME280;9752;54.270;12.470;2022-12-13T10:52:39;101242.91;;;-0.79;100.00
19236;BME280;9752;54.270;12.470;2022-12-13T10:57:48;101234.19;;;-0.81;100.00
19236;BME280;9752;54.270;12.470;2022-12-13T11:02:53;101243.91;;;-1.30;100.00
19236;BME280;9752;54.270;12.470;2022-12-13T11:08:11;101239.63;;;-1.45;100.00
19236;BME280;9752;54.270;12.470;2022-12-13T11:13:23;101233.88;;;-1.66;100.00
19236;BME280;9752;54.270;12.470;2022-12-13T11:18:30;101238.38;;;-1.56;100.00
19236;BME280;9752;54.270;12.470;2022-12-13T11:23:38;101242.78;;;-1.77;100.00
19236;BME280;9752;54.270;12.470;2022-12-13T11:29:03;101235.69;;;-1.65;100.00
19236;BME280;9752;54.270;12.470;2022-12-13T11:34:17;101225.88;;;-1.62;100.00
19236;BME280;9752;54.270;12.470;2022-12-13T11:39:28;101215.50;;;-1.63;100.00
19236;BME280;9752;54.270;12.470;2022-12-13T11:44:39;101220.03;;;-1.53;100.00
19236;BME280;9752;54.270;12.470;2022-12-13T11:49:44;101212.31;;;-1.39;100.00
19236;BME280;9752;54.270;12.470;2022-12-13T11:54:53;101208.28;;;-1.30;100.00
19236;BME280;9752;54.270;12.470;2022-12-13T12:00:03;101208.69;;;-1.04;100.00
19236;BME280;9752;54.270;12.470;2022-12-13T12:05:26;101201.00;;;-0.96;100.00
19236;BME280;9752;54.270;12.470;2022-12-13T12:10:34;101201.69;;;-0.90;100.00
19236;BME280;9752;54.270;12.470;2022-12-13T12:15:41;101199.38;;;-0.96;100.00
19236;BME280;9752;54.270;12.470;2022-12-13T12:20:55;101193.53;;;-0.95;100.00
19236;BME280;9752;54.270;12.470;2022-12-13T12:26:05;101191.50;;;-0.67;100.00
19236;BME280;9752;54.270;12.470;2022-12-13T12:31:14;101192.13;;;-0.77;100.00
19236;BME280;9752;54.270;12.470;2022-12-13T12:36:29;101183.00;;;-0.98;100.00
19236;BME280;9752;54.270;12.470;2022-12-13T12:41:51;101182.53;;;-0.80;100.00
19236;BME280;9752;54.270;12.470;2022-12-13T12:47:04;101186.41;;;-0.67;100.00
19236;BME280;9752;54.270;12.470;2022-12-13T12:52:18;101187.22;;;-0.75;100.00
19236;BME280;9752;54.270;12.470;2022-12-13T12:57:33;101192.94;;;-0.85;100.00
19236;BME280;9752;54.270;12.470;2022-12-13T13:02:42;101182.88;;;-0.84;100.00
19236;BME280;9752;54.270;12.470;2022-12-13T13:07:50;101179.50;;;-0.91;100.00
19236;BME280;9752;54.270;12.470;2022-12-13T13:12:56;101183.72;;;-0.99;100.00
19236;BME280;9752;54.270;12.470;2022-12-13T13:17:58;101193.28;;;-1.12;100.00
19236;BME280;9752;54.270;12.470;2022-12-13T13:23:12;101196.81;;;-1.26;100.00
19236;BME280;9752;54.270;12.470;2022-12-13T13:28:16;101201.53;;;-1.22;100.00
19236;BME280;9752;54.270;12.470;2022-12-13T13:38:56;101192.25;;;-1.22;100.00
19236;BME280;9752;54.270;12.470;2022-12-13T13:44:01;101192.63;;;-1.26;100.00
19236;BME280;9752;54.270;12.470;2022-12-13T13:49:06;101199.22;;;-1.35;100.00
19236;BME280;9752;54.270;12.470;2022-12-13T13:54:48;101209.97;;;-1.38;100.00
19236;BME280;9752;54.270;12.470;2022-12-13T14:00:08;101200.00;;;-1.43;100.00
19236;BME280;9752;54.270;12.470;2022-12-13T14:10:49;101194.97;;;-1.58;100.00
19236;BME280;9752;54.270;12.470;2022-12-13T14:16:19;101195.81;;;-1.43;100.00
19236;BME280;9752;54.270;12.470;2022-12-13T14:21:35;101199.97;;;-1.36;100.00
19236;BME280;9752;54.270;12.470;2022-12-13T14:26:52;101203.56;;;-1.27;100.00
19236;BME280;9752;54.270;12.470;2022-12-13T14:31:59;101215.13;;;-1.22;100.00
19236;BME280;9752;54.270;12.470;2022-12-13T14:37:05;101208.06;;;-1.24;100.00
19236;BME280;9752;54.270;12.470;2022-12-13T14:42:20;101206.25;;;-1.25;100.00
19236;BME280;9752;54.270;12.470;2022-12-13T14:47:24;101200.28;;;-1.33;100.00
19236;BME280;9752;54.270;12.470;2022-12-13T14:52:32;101195.94;;;-1.34;100.00
19236;BME280;9752;54.270;12.470;2022-12-13T14:57:36;101196.72;;;-1.42;100.00
19236;BME280;9752;54.270;12.470;2022-12-13T15:02:49;101198.94;;;-1.52;100.00
19236;BME280;9752;54.270;12.470;2022-12-13T15:07:51;101199.50;;;-1.55;100.00
19236;BME280;9752;54.270;12.470;2022-12-13T15:12:53;101192.59;;;-1.56;100.00
19236;BME280;9752;54.270;12.470;2022-12-13T15:18:21;101183.69;;;-1.60;100.00
19236;BME280;9752;54.270;12.470;2022-12-13T15:23:30;101187.19;;;-1.66;100.00
19236;BME280;9752;54.270;12.470;2022-12-13T15:28:42;101179.03;;;-1.71;100.00
19236;BME280;9752;54.270;12.470;2022-12-13T15:33:45;101181.56;;;-1.71;100.00
19236;BME280;9752;54.270;12.470;2022-12-13T15:38:58;101184.50;;;-1.82;100.00
19236;BME280;9752;54.270;12.470;2022-12-13T15:44:03;101195.44;;;-1.90;100.00
19236;BME280;9752;54.270;12.470;2022-12-13T15:49:20;101196.03;;;-2.07;100.00
19236;BME280;9752;54.270;12.470;2022-12-13T15:54:25;101193.53;;;-2.50;100.00
19236;BME280;9752;54.270;12.470;2022-12-13T15:59:30;101202.41;;;-3.04;100.00
19236;BME280;9752;54.270;12.470;2022-12-13T16:04:33;101200.28;;;-3.50;100.00
19236;BME280;9752;54.270;12.470;2022-12-13T16:09:35;101198.94;;;-3.75;100.00
19236;BME280;9752;54.270;12.470;2022-12-13T16:14:41;101193.03;;;-3.96;100.00
19236;BME280;9752;54.270;12.470;2022-12-13T16:19:45;101183.19;;;-4.07;100.00
19236;BME280;9752;54.270;12.470;2022-12-13T16:24:47;101183.91;;;-4.08;100.00
19236;BME280;9752;54.270;12.470;2022-12-13T16:29:49;101187.03;;;-4.03;100.00
19236;BME280;9752;54.270;12.470;2022-12-13T16:34:52;101171.97;;;-4.09;100.00
19236;BME280;9752;54.270;12.470;2022-12-13T16:39:54;101159.22;;;-4.23;100.00
19236;BME280;9752;54.270;12.470;2022-12-13T16:44:55;101160.75;;;-4.38;100.00
19236;BME280;9752;54.270;12.470;2022-12-13T16:50:01;101175.84;;;-4.53;100.00
19236;BME280;9752;54.270;12.470;2022-12-13T16:55:05;101166.25;;;-4.55;100.00
19236;BME280;9752;54.270;12.470;2022-12-13T17:00:10;101166.41;;;-4.61;100.00
19236;BME280;9752;54.270;12.470;2022-12-13T17:05:14;101181.84;;;-4.92;100.00
19236;BME280;9752;54.270;12.470;2022-12-13T17:10:17;101175.28;;;-5.17;100.00
19236;BME280;9752;54.270;12.470;2022-12-13T17:15:19;101175.00;;;-5.26;100.00
19236;BME280;9752;54.270;12.470;2022-12-13T17:20:22;101171.19;;;-5.30;100.00
19236;BME280;9752;54.270;12.470;2022-12-13T17:25:24;101168.41;;;-5.18;100.00
19236;BME280;9752;54.270;12.470;2022-12-13T17:30:26;101170.03;;;-5.19;100.00
19236;BME280;9752;54.270;12.470;2022-12-13T17:35:33;101178.75;;;-4.97;100.00
19236;BME280;9752;54.270;12.470;2022-12-13T17:40:34;101171.53;;;-4.74;100.00
19236;BME280;9752;54.270;12.470;2022-12-13T17:45:36;101167.69;;;-4.30;100.00
19236;BME280;9752;54.270;12.470;2022-12-13T17:50:39;101171.06;;;-4.09;100.00
19236;BME280;9752;54.270;12.470;2022-12-13T17:55:41;101163.28;;;-4.11;100.00
19236;BME280;9752;54.270;12.470;2022-12-13T18:00:44;101170.91;;;-4.04;100.00
19236;BME280;9752;54.270;12.470;2022-12-13T18:05:55;101164.78;;;-3.99;100.00
19236;BME280;9752;54.270;12.470;2022-12-13T18:10:57;101161.22;;;-3.86;100.00
19236;BME280;9752;54.270;12.470;2022-12-13T18:16:03;101147.66;;;-3.80;100.00
19236;BME280;9752;54.270;12.470;2022-12-13T18:21:08;101153.31;;;-3.75;100.00
19236;BME280;9752;54.270;12.470;2022-12-13T18:26:12;101154.00;;;-3.76;100.00
19236;BME280;9752;54.270;12.470;2022-12-13T18:31:15;101161.09;;;-3.74;100.00
19236;BME280;9752;54.270;12.470;2022-12-13T18:36:20;101159.47;;;-3.73;100.00
19236;BME280;9752;54.270;12.470;2022-12-13T18:41:23;101155.88;;;-3.61;100.00
19236;BME280;9752;54.270;12.470;2022-12-13T18:46:28;101141.75;;;-3.59;100.00
19236;BME280;9752;54.270;12.470;2022-12-13T18:51:31;101145.56;;;-3.55;100.00
19236;BME280;9752;54.270;12.470;2022-12-13T18:56:33;101133.09;;;-3.54;100.00
19236;BME280;9752;54.270;12.470;2022-12-13T19:01:35;101124.19;;;-3.57;100.00
19236;BME280;9752;54.270;12.470;2022-12-13T19:06:38;101118.22;;;-3.58;100.00
19236;BME280;9752;54.270;12.470;2022-12-13T19:11:40;101118.22;;;-3.58;100.00
19236;BME280;9752;54.270;12.470;2022-12-13T19:16:41;101110.25;;;-3.61;100.00
19236;BME280;9752;54.270;12.470;2022-12-13T19:21:44;101105.72;;;-3.63;100.00
19236;BME280;9752;54.270;12.470;2022-12-13T19:26:46;101098.13;;;-3.63;100.00
19236;BME280;9752;54.270;12.470;2022-12-13T19:31:50;101090.28;;;-3.72;100.00
19236;BME280;9752;54.270;12.470;2022-12-13T19:36:53;101107.09;;;-3.80;100.00
19236;BME280;9752;54.270;12.470;2022-12-13T19:41:54;101104.00;;;-3.92;100.00
19236;BME280;9752;54.270;12.470;2022-12-13T19:46:56;101101.94;;;-4.08;100.00
19236;BME280;9752;54.270;12.470;2022-12-13T19:52:00;101108.41;;;-4.18;100.00
19236;BME280;9752;54.270;12.470;2022-12-13T19:57:02;101107.13;;;-4.21;100.00
19236;BME280;9752;54.270;12.470;2022-12-13T20:02:04;101090.31;;;-4.21;100.00
19236;BME280;9752;54.270;12.470;2022-12-13T20:07:07;101089.78;;;-4.18;100.00
19236;BME280;9752;54.270;12.470;2022-12-13T20:12:09;101085.44;;;-4.12;100.00
19236;BME280;9752;54.270;12.470;2022-12-13T20:17:11;101074.81;;;-4.09;100.00
19236;BME280;9752;54.270;12.470;2022-12-13T20:22:14;101072.78;;;-4.12;100.00
19236;BME280;9752;54.270;12.470;2022-12-13T20:27:16;101077.88;;;-4.05;100.00
19236;BME280;9752;54.270;12.470;2022-12-13T20:32:19;101074.84;;;-3.95;100.00
19236;BME280;9752;54.270;12.470;2022-12-13T20:37:22;101070.91;;;-3.86;100.00
19236;BME280;9752;54.270;12.470;2022-12-13T20:42:24;101058.22;;;-3.86;100.00
19236;BME280;9752;54.270;12.470;2022-12-13T20:47:26;101061.84;;;-3.84;100.00
19236;BME280;9752;54.270;12.470;2022-12-13T20:52:29;101068.19;;;-3.80;100.00
19236;BME280;9752;54.270;12.470;2022-12-13T20:57:31;101067.78;;;-3.98;100.00
19236;BME280;9752;54.270;12.470;2022-12-13T21:02:32;101070.97;;;-4.20;100.00
19236;BME280;9752;54.270;12.470;2022-12-13T21:07:35;101070.66;;;-4.43;100.00
19236;BME280;9752;54.270;12.470;2022-12-13T21:12:54;101075.88;;;-4.49;100.00
19236;BME280;9752;54.270;12.470;2022-12-13T21:17:57;101067.84;;;-4.59;100.00
19236;BME280;9752;54.270;12.470;2022-12-13T21:23:00;101061.28;;;-4.72;100.00
19236;BME280;9752;54.270;12.470;2022-12-13T21:28:02;101071.13;;;-4.87;100.00
19236;BME280;9752;54.270;12.470;2022-12-13T21:33:04;101060.28;;;-4.86;100.00
19236;BME280;9752;54.270;12.470;2022-12-13T21:38:07;101066.75;;;-4.68;100.00
19236;BME280;9752;54.270;12.470;2022-12-13T21:43:08;101055.09;;;-4.46;100.00
19236;BME280;9752;54.270;12.470;2022-12-13T21:48:10;101060.44;;;-4.23;100.00
19236;BME280;9752;54.270;12.470;2022-12-13T21:53:13;101042.41;;;-4.05;100.00
19236;BME280;9752;54.270;12.470;2022-12-13T21:58:15;101025.44;;;-3.92;100.00
19236;BME280;9752;54.270;12.470;2022-12-13T22:03:45;101024.03;;;-3.82;100.00
19236;BME280;9752;54.270;12.470;2022-12-13T22:08:48;101024.22;;;-3.66;100.00
19236;BME280;9752;54.270;12.470;2022-12-13T22:13:50;101031.28;;;-3.57;100.00
19236;BME280;9752;54.270;12.470;2022-12-13T22:18:52;101021.16;;;-3.57;100.00
19236;BME280;9752;54.270;12.470;2022-12-13T22:23:56;101009.19;;;-3.65;100.00
19236;BME280;9752;54.270;12.470;2022-12-13T22:28:57;101003.94;;;-3.81;100.00
19236;BME280;9752;54.270;12.470;2022-12-13T22:33:59;100998.47;;;-3.98;100.00
19236;BME280;9752;54.270;12.470;2022-12-13T22:39:03;100991.72;;;-4.19;100.00
19236;BME280;9752;54.270;12.470;2022-12-13T22:44:06;100994.19;;;-4.41;100.00
19236;BME280;9752;54.270;12.470;2022-12-13T22:49:08;100988.38;;;-4.47;100.00
19236;BME280;9752;54.270;12.470;2022-12-13T22:54:12;100989.13;;;-4.41;100.00
19236;BME280;9752;54.270;12.470;2022-12-13T22:59:13;100983.06;;;-4.63;100.00
19236;BME280;9752;54.270;12.470;2022-12-13T23:04:15;100988.94;;;-4.77;100.00
19236;BME280;9752;54.270;12.470;2022-12-13T23:09:18;100988.19;;;-4.83;100.00
19236;BME280;9752;54.270;12.470;2022-12-13T23:14:27;100984.81;;;-5.03;100.00
19236;BME280;9752;54.270;12.470;2022-12-13T23:19:29;100981.47;;;-5.17;100.00
19236;BME280;9752;54.270;12.470;2022-12-13T23:24:32;100979.03;;;-5.30;100.00
19236;BME280;9752;54.270;12.470;2022-12-13T23:29:34;100982.44;;;-5.36;100.00
19236;BME280;9752;54.270;12.470;2022-12-13T23:34:36;100970.63;;;-5.43;100.00
19236;BME280;9752;54.270;12.470;2022-12-13T23:39:39;100973.63;;;-5.53;100.00
19236;BME280;9752;54.270;12.470;2022-12-13T23:44:40;100967.94;;;-5.64;100.00
19236;BME280;9752;54.270;12.470;2022-12-13T23:49:42;100970.03;;;-5.75;100.00
19236;BME280;9752;54.270;12.470;2022-12-13T23:54:45;100962.72;;;-5.86;100.00
19236;BME280;9752;54.270;12.470;2022-12-13T23:59:47;100962.44;;;-5.95;100.00
